Time;durP1;ratioP1;P1;durP2;ratioP2;P2;SDS_P1;SDS_P2;PMS_P1;PMS_P2;Temp;Humidity;BMP_temperature;BMP_pressure;BME280_temperature;BME280_humidity;BME280_pressure;Samples;Min_cycle;Max_cycle;Signal;HPM_P1;HPM_P2
2022/08/11 00:00:32;;;;;;;2.63;2.05;;;;;;;18.59;77.58;94758.19;5012258;28;20193;-75
2022/08/11 00:03:05;;;;;;;2.65;2.15;;;;;;;18.54;77.65;94759.31;4992949;28;20665;-74
2022/08/11 00:05:43;;;;;;;4.38;2.45;;;;;;;18.50;78.03;94763.16;5007131;28;20220;-74
2022/08/11 00:08:11;;;;;;;4.80;3.00;;;;;;;18.45;78.22;94756.84;5012916;28;20279;-74
2022/08/11 00:10:39;;;;;;;3.50;2.47;;;;;;;18.41;78.12;94756.03;5012250;28;20201;-74
2022/08/11 00:13:07;;;;;;;4.28;2.40;;;;;;;18.41;78.56;94758.75;5012465;28;20213;-74
2022/08/11 00:15:41;;;;;;;2.72;2.10;;;;;;;18.45;78.49;94756.84;5012144;28;20592;-74
2022/08/11 00:18:09;;;;;;;2.67;2.40;;;;;;;18.41;78.36;94750.53;5012294;28;20649;-74
2022/08/11 00:20:41;;;;;;;5.93;2.33;;;;;;;18.25;79.38;94762.88;5012238;28;20204;-74
2022/08/11 00:23:11;;;;;;;3.53;2.53;;;;;;;18.18;79.93;94757.31;5012004;28;20247;-73
2022/08/11 00:25:40;;;;;;;2.58;2.10;;;;;;;18.26;79.71;94754.28;5012307;28;20255;-75
2022/08/11 00:28:28;;;;;;;3.53;2.55;;;;;;;18.12;79.91;94756.84;5012004;28;20300;-74
2022/08/11 00:30:57;;;;;;;2.70;2.33;;;;;;;18.14;80.19;94751.78;5012113;28;20197;-75
2022/08/11 00:33:34;;;;;;;4.80;2.20;;;;;;;18.27;79.63;94749.56;5012107;28;20236;-74
2022/08/11 00:36:04;;;;;;;2.83;2.53;;;;;;;18.23;79.73;94743.25;5012062;28;20196;-74
2022/08/11 00:38:35;;;;;;;4.68;2.72;;;;;;;18.18;79.86;94747.09;5012176;28;20212;-74
2022/08/11 00:41:15;;;;;;;5.20;2.50;;;;;;;18.16;80.15;94752.19;5011948;28;20648;-73
2022/08/11 00:43:51;;;;;;;4.93;3.17;;;;;;;18.23;79.95;94744.03;4992467;28;20272;-74
2022/08/11 00:46:35;;;;;;;3.60;2.42;;;;;;;18.13;80.16;94758.41;5008097;28;20269;-76
2022/08/11 00:49:16;;;;;;;3.47;2.60;;;;;;;18.13;80.20;94747.44;5012081;28;20259;-75
2022/08/11 00:52:08;;;;;;;3.28;2.17;;;;;;;18.09;80.17;94754.81;4999536;28;20210;-73
2022/08/11 00:55:18;;;;;;;2.55;2.13;;;;;;;18.15;80.24;94753.34;5011718;28;20208;-73
2022/08/11 00:58:26;;;;;;;4.45;2.35;;;;;;;18.07;80.54;94746.19;5011692;28;20711;-73
2022/08/11 01:01:08;;;;;;;5.15;2.70;;;;;;;18.02;80.99;94746.53;5008252;28;20205;-75
2022/08/11 01:04:09;;;;;;;3.47;2.35;;;;;;;18.03;81.31;94739.88;5011170;28;20660;-74
2022/08/11 01:07:07;;;;;;;4.50;2.45;;;;;;;18.09;80.94;94743.84;5001653;28;20193;-73
2022/08/11 01:09:52;;;;;;;3.30;2.08;;;;;;;18.08;81.13;94758.72;4998591;28;20603;-74
2022/08/11 01:12:34;;;;;;;8.52;2.83;;;;;;;18.10;80.68;94745.44;5011594;28;20206;-73
2022/08/11 01:15:34;;;;;;;3.83;2.80;;;;;;;18.13;80.92;94743.91;5004335;28;20233;-74
2022/08/11 01:18:57;;;;;;;3.80;3.00;;;;;;;18.17;81.04;94736.53;5002595;28;20201;-74
2022/08/11 01:21:57;;;;;;;3.63;2.80;;;;;;;18.18;80.62;94732.63;4992118;28;20206;-75
2022/08/11 01:25:15;;;;;;;3.17;2.03;;;;;;;18.12;81.05;94732.16;4998280;28;20260;-73
2022/08/11 01:28:11;;;;;;;3.40;2.72;;;;;;;18.07;81.06;94738.75;4942053;28;20212;-73
2022/08/11 01:31:02;;;;;;;3.78;2.95;;;;;;;18.07;81.07;94729.72;4999241;28;20344;-74
2022/08/11 01:34:08;;;;;;;3.17;2.50;;;;;;;18.08;81.23;94731.31;5010540;28;20200;-74
2022/08/11 01:37:25;;;;;;;3.47;2.55;;;;;;;18.03;81.22;94734.41;5011257;28;20197;-74
2022/08/11 01:40:27;;;;;;;3.53;2.63;;;;;;;18.10;80.97;94729.00;4946875;28;20682;-73
2022/08/11 01:46:21;;;;;;;2.80;2.47;;;;;;;17.82;81.95;94734.09;5010935;28;20263;-73
2022/08/11 01:48:57;;;;;;;3.83;2.63;;;;;;;17.84;81.83;94731.78;5010954;28;20196;-73
2022/08/11 01:51:34;;;;;;;3.60;2.75;;;;;;;17.90;81.95;94730.31;5010690;28;20247;-74
2022/08/11 01:54:06;;;;;;;4.50;2.83;;;;;;;17.83;81.87;94736.47;5010679;28;20243;-74
2022/08/11 01:56:47;;;;;;;3.40;2.60;;;;;;;17.71;82.42;94739.44;5010900;28;20204;-74
2022/08/11 01:59:19;;;;;;;4.53;2.70;;;;;;;17.77;82.12;94737.19;5010753;28;20724;-74
2022/08/11 02:02:18;;;;;;;3.90;2.67;;;;;;;17.73;82.46;94732.44;5010349;28;20391;-74
2022/08/11 02:04:56;;;;;;;3.58;2.72;;;;;;;17.72;82.57;94735.53;4998911;28;20762;-74
2022/08/11 02:07:33;;;;;;;3.08;2.28;;;;;;;17.61;82.82;94724.41;5010438;28;20292;-75
2022/08/11 02:13:12;;;;;;;4.15;2.97;;;;;;;17.48;83.45;94725.78;4999833;28;20251;-75
2022/08/11 02:15:45;;;;;;;6.07;3.03;;;;;;;17.50;83.36;94723.44;5010031;28;20287;-73
2022/08/11 02:18:21;;;;;;;3.35;2.70;;;;;;;17.52;83.32;94721.13;5010485;28;20197;-75
2022/08/11 02:23:45;;;;;;;4.18;3.00;;;;;;;17.52;83.86;94723.06;5009821;28;20204;-73
2022/08/11 02:26:19;;;;;;;5.10;2.38;;;;;;;17.47;83.18;94729.69;5010074;28;21025;-73
2022/08/11 02:29:10;;;;;;;3.88;2.95;;;;;;;17.50;83.84;94723.44;5010098;28;20291;-74
2022/08/11 02:34:55;;;;;;;3.20;2.42;;;;;;;17.49;83.67;94732.84;5009706;28;20560;-74
2022/08/11 02:37:32;;;;;;;3.83;2.92;;;;;;;17.42;84.13;94727.25;5010368;28;20197;-74
2022/08/11 02:40:16;;;;;;;3.65;2.65;;;;;;;17.39;83.92;94719.75;5010067;28;20259;-74
2022/08/11 02:42:57;;;;;;;2.78;2.20;;;;;;;17.38;83.84;94715.44;5010470;28;20275;-75
2022/08/11 02:45:40;;;;;;;3.15;2.47;;;;;;;17.36;83.56;94723.22;5010059;28;20232;-75
2022/08/11 02:51:14;;;;;;;4.50;3.17;;;;;;;17.34;84.34;94725.56;5010079;28;20200;-75
2022/08/11 02:53:49;;;;;;;4.30;2.90;;;;;;;17.34;84.01;94731.03;5010633;28;20201;-75
2022/08/11 02:56:27;;;;;;;3.88;3.00;;;;;;;17.37;83.74;94741.22;5009421;28;20677;-75
2022/08/11 03:01:58;;;;;;;3.40;2.72;;;;;;;17.32;84.19;94728.66;5009636;28;20258;-75
2022/08/11 03:04:36;;;;;;;7.00;3.67;;;;;;;17.33;84.23;94729.47;5009984;28;20224;-75
2022/08/11 03:07:15;;;;;;;4.45;3.13;;;;;;;17.25;84.30;94730.50;5009656;28;20201;-73
2022/08/11 03:09:50;;;;;;;4.45;2.67;;;;;;;17.22;84.93;94734.75;5011814;28;20193;-74
2022/08/11 03:18:15;;;;;;;4.38;2.85;;;;;;;17.14;85.05;94737.75;5013914;28;20707;-75
2022/08/11 03:20:48;;;;;;;5.10;3.03;;;;;;;17.13;85.13;94736.16;5013862;28;20196;-74
2022/08/11 03:23:25;;;;;;;7.50;2.97;;;;;;;17.14;84.94;94733.06;5013819;28;20212;-73
2022/08/11 03:26:00;;;;;;;4.93;2.13;;;;;;;17.31;84.68;94742.72;5013621;28;20702;-73
2022/08/11 03:28:33;;;;;;;3.33;2.45;;;;;;;17.30;84.63;94735.66;5013595;28;20196;-75
2022/08/11 03:31:24;;;;;;;4.00;2.75;;;;;;;17.29;84.04;94734.06;5013385;28;20208;-73
2022/08/11 03:34:01;;;;;;;4.40;3.05;;;;;;;17.32;83.99;94727.88;5001016;28;20229;-73
2022/08/11 03:36:50;;;;;;;5.18;3.10;;;;;;;17.44;83.29;94730.41;5012831;28;20217;-73
2022/08/11 03:39:28;;;;;;;4.47;3.08;;;;;;;17.57;82.72;94729.03;5013193;28;20300;-74
2022/08/11 03:42:05;;;;;;;4.90;2.90;;;;;;;17.83;81.95;94730.19;5000724;28;20201;-73
2022/08/11 03:44:47;;;;;;;2.80;2.50;;;;;;;18.34;80.22;94728.50;5013243;28;20217;-73
2022/08/11 03:47:46;;;;;;;4.15;3.03;;;;;;;19.17;77.12;94731.72;5012804;28;20197;-74
2022/08/11 03:50:27;;;;;;;4.88;3.55;;;;;;;19.80;74.38;94725.16;4993755;28;20194;-75
2022/08/11 03:53:06;;;;;;;3.25;2.85;;;;;;;20.53;71.22;94722.34;5010767;28;20192;-75
2022/08/11 03:56:02;;;;;;;10.43;3.60;;;;;;;21.21;69.22;94718.56;5012810;28;20209;-74
2022/08/11 03:58:53;;;;;;;6.05;4.43;;;;;;;21.89;66.57;94722.03;5003343;28;20216;-75
2022/08/11 04:01:58;;;;;;;5.10;4.28;;;;;;;22.19;64.79;94724.34;4999457;28;20197;-75
2022/08/11 04:05:06;;;;;;;5.28;4.30;;;;;;;22.76;63.27;94720.56;5012511;28;20213;-74
2022/08/11 04:08:11;;;;;;;5.43;4.30;;;;;;;23.39;61.47;94720.13;4995724;28;20632;-75
2022/08/11 04:11:16;;;;;;;5.72;4.53;;;;;;;24.27;58.86;94722.50;5012643;28;20219;-74
2022/08/11 04:17:40;;;;;;;7.80;4.25;;;;;;;25.77;54.33;94722.00;5007637;28;20284;-74
2022/08/11 04:20:29;;;;;;;6.40;4.28;;;;;;;25.99;53.10;94712.06;5011933;28;20193;-76
2022/08/11 04:23:28;;;;;;;8.65;4.60;;;;;;;26.57;51.79;94707.00;5012655;28;20204;-78
2022/08/11 04:26:36;;;;;;;7.18;4.53;;;;;;;26.85;50.76;94717.53;4949192;28;20782;-74
2022/08/11 04:29:17;;;;;;;5.45;4.28;;;;;;;27.04;49.64;94723.53;5000577;28;20212;-73
2022/08/11 04:32:04;;;;;;;5.72;4.40;;;;;;;27.30;49.59;94716.97;5011602;28;20208;-74
2022/08/11 04:34:54;;;;;;;5.03;4.10;;;;;;;26.97;49.89;94724.44;5011707;28;20296;-74
2022/08/11 04:37:43;;;;;;;6.03;4.43;;;;;;;27.86;47.53;94725.16;5002360;28;20201;-74
2022/08/11 04:40:49;;;;;;;5.95;4.32;;;;;;;29.00;45.23;94712.44;5011591;28;20263;-73
2022/08/11 04:43:59;;;;;;;5.47;4.28;;;;;;;29.68;43.52;94711.13;5012052;28;20203;-74
2022/08/11 04:46:41;;;;;;;6.55;4.45;;;;;;;30.00;42.57;94717.69;5011742;28;20236;-73
2022/08/11 05:02:44;;;;;;;4.68;3.97;;;;;;;28.76;44.77;94725.09;5011067;28;20317;-73
2022/08/11 05:05:32;;;;;;;4.75;3.80;;;;;;;28.86;44.39;94729.63;5003754;28;20240;-74
2022/08/11 05:08:22;;;;;;;4.80;3.90;;;;;;;29.29;43.76;94719.94;4999995;28;20690;-73
2022/08/11 05:11:01;;;;;;;5.82;3.75;;;;;;;28.62;44.87;94722.72;5011018;28;20249;-74
2022/08/11 05:36:17;;;;;;;5.80;4.35;;;;;;;26.67;49.71;94728.22;5010882;28;20204;-74
2022/08/11 05:58:33;;;;;;;5.45;4.20;;;;;;;32.66;37.13;94712.13;5010212;28;20285;-72
2022/08/11 06:01:00;;;;;;;7.05;4.72;;;;;;;33.12;36.13;94713.63;5009928;28;20276;-72
2022/08/11 06:03:29;;;;;;;5.32;4.38;;;;;;;32.14;38.21;94719.56;5010127;28;20232;-73
2022/08/11 06:05:59;;;;;;;5.82;4.47;;;;;;;31.14;40.07;94724.81;5009775;28;20233;-72
2022/08/11 06:08:30;;;;;;;6.28;4.57;;;;;;;30.96;40.42;94720.66;5010120;28;20688;-74
2022/08/11 06:11:02;;;;;;;5.28;3.88;;;;;;;32.13;38.22;94720.81;5010471;28;20256;-74
2022/08/11 06:13:30;;;;;;;7.18;4.78;;;;;;;33.16;35.68;94714.25;5009169;28;20212;-74
2022/08/11 06:15:58;;;;;;;4.80;4.03;;;;;;;33.39;35.45;94712.00;5008848;28;20279;-74
2022/08/11 06:18:26;;;;;;;5.60;4.75;;;;;;;32.92;36.18;94712.59;5010432;28;20212;-74
2022/08/11 06:20:55;;;;;;;5.35;4.38;;;;;;;33.82;35.26;94702.31;5010356;28;20209;-73
2022/08/11 06:23:30;;;;;;;5.38;4.25;;;;;;;33.99;35.11;94702.69;5010222;28;20615;-74
2022/08/11 06:25:59;;;;;;;4.57;4.03;;;;;;;34.38;33.80;94703.53;5009984;28;20209;-74
2022/08/11 06:28:32;;;;;;;4.70;4.07;;;;;;;33.76;34.12;94707.78;5009549;28;20294;-75
2022/08/11 06:31:00;;;;;;;4.63;3.85;;;;;;;31.38;37.67;94711.88;5009550;28;20185;-74
2022/08/11 06:33:33;;;;;;;4.40;3.80;;;;;;;31.66;37.07;94710.75;5009686;28;20259;-73
2022/08/11 06:36:06;;;;;;;5.60;3.60;;;;;;;31.53;37.87;94701.66;5007190;28;20189;-73
2022/08/11 06:39:00;;;;;;;4.00;3.60;;;;;;;31.16;37.83;94716.75;5008898;28;20193;-73
2022/08/11 06:41:33;;;;;;;5.00;4.10;;;;;;;31.89;36.76;94711.41;5005143;28;20214;-73
2022/08/11 06:44:11;;;;;;;5.63;3.53;;;;;;;33.47;34.12;94707.63;5008987;28;20204;-74
2022/08/11 06:46:40;;;;;;;5.43;4.35;;;;;;;33.04;35.18;94709.59;5009476;28;20217;-73
2022/08/11 06:51:10;;;;;;;3.45;3.13;;;;;;;29.97;38.61;94710.22;5009829;28;20275;-73
2022/08/11 06:51:55;;;;;;;4.35;3.55;;;;;;;30.91;38.20;94712.84;5001013;28;20201;-73
2022/08/11 06:54:25;;;;;;;4.28;3.30;;;;;;;30.53;38.65;94715.03;5009324;28;20612;-74
2022/08/11 07:02:26;;;;;;;6.57;4.55;;;;;;;32.86;35.64;94709.63;5009649;28;20299;-74
2022/08/11 07:05:07;;;;;;;4.22;3.30;;;;;;;33.54;35.16;94707.25;5009823;28;20197;-74
2022/08/11 07:29:05;;;;;;;2.92;2.63;;;;;;;28.17;41.30;94734.66;4998217;28;20209;-83
2022/08/11 07:31:36;;;;;;;3.50;2.90;;;;;;;27.43;43.02;94728.97;5009855;28;20208;-75
2022/08/11 07:34:13;;;;;;;4.30;3.40;;;;;;;27.65;43.35;94734.03;5009460;28;20228;-74
2022/08/11 07:36:46;;;;;;;4.55;3.42;;;;;;;27.32;43.44;94728.44;5008203;28;20518;-74
2022/08/11 07:39:19;;;;;;;4.03;3.15;;;;;;;26.29;46.66;94730.59;5006341;28;20665;-74
2022/08/11 07:41:49;;;;;;;3.53;3.20;;;;;;;27.07;44.63;94730.97;5008397;28;20251;-74
2022/08/11 07:44:17;;;;;;;4.43;3.45;;;;;;;27.10;44.82;94730.91;5002669;28;20193;-73
2022/08/11 07:52:32;;;;;;;4.22;3.30;;;;;;;28.28;43.68;94721.28;5009308;28;20664;-74
2022/08/11 07:55:02;;;;;;;5.45;3.17;;;;;;;28.83;40.83;94716.56;4998381;28;20276;-73
2022/08/11 08:19:38;;;;;;;4.55;3.22;;;;;;;29.61;39.09;94702.22;5012996;28;20200;-73
2022/08/11 08:22:05;;;;;;;5.78;3.10;;;;;;;29.63;38.95;94706.13;5012567;28;20692;-74
2022/08/11 08:24:33;;;;;;;3.28;2.80;;;;;;;28.68;38.96;94704.25;5012946;28;20201;-73
2022/08/11 08:27:01;;;;;;;3.35;2.90;;;;;;;27.48;41.57;94708.94;5012668;28;20233;-73
2022/08/11 08:32:18;;;;;;;4.97;3.22;;;;;;;27.62;42.51;94702.28;5012413;28;20723;-73
2022/08/11 08:34:46;;;;;;;4.18;3.50;;;;;;;27.92;41.96;94698.34;5012475;28;20311;-74
2022/08/11 08:37:14;;;;;;;4.10;3.30;;;;;;;27.72;42.59;94695.69;5012373;28;20228;-76
2022/08/11 08:39:41;;;;;;;6.10;3.45;;;;;;;28.42;41.97;94692.25;5012116;28;20270;-74
2022/08/11 08:42:12;;;;;;;3.78;3.08;;;;;;;28.60;41.16;94691.72;5011816;28;20212;-74
2022/08/11 08:44:49;;;;;;;3.63;3.17;;;;;;;28.14;41.80;94693.78;5011810;28;20201;-73
2022/08/11 08:47:18;;;;;;;4.93;2.78;;;;;;;28.67;40.92;94691.53;5012051;28;20224;-72
2022/08/11 08:49:48;;;;;;;4.65;3.40;;;;;;;29.53;38.62;94676.53;5011475;28;20664;-72
2022/08/11 08:52:18;;;;;;;3.88;3.25;;;;;;;29.91;37.56;94670.88;5012177;28;20193;-72
2022/08/11 08:54:52;;;;;;;5.03;3.05;;;;;;;29.61;39.16;94685.47;5011449;28;20208;-73
2022/08/11 08:57:22;;;;;;;5.90;3.58;;;;;;;29.12;41.37;94682.22;5011448;28;20227;-73
2022/08/11 08:59:52;;;;;;;4.10;3.25;;;;;;;28.30;41.69;94690.94;5011290;28;20197;-72
2022/08/11 09:02:23;;;;;;;5.13;3.05;;;;;;;28.02;41.63;94691.69;5011674;28;20225;-72
2022/08/11 09:04:51;;;;;;;4.60;2.88;;;;;;;28.51;40.36;94688.81;5011627;28;20201;-72
2022/08/11 09:07:22;;;;;;;3.78;3.38;;;;;;;28.73;40.60;94678.56;5010743;28;20240;-72
2022/08/11 09:09:52;;;;;;;4.75;2.95;;;;;;;28.38;39.48;94685.19;5011431;28;20204;-73
2022/08/11 09:12:20;;;;;;;3.10;2.80;;;;;;;27.78;40.10;94674.44;5010610;28;20628;-73
2022/08/11 09:15:03;;;;;;;4.38;3.40;;;;;;;28.11;40.82;94671.59;5011283;28;20233;-73
2022/08/11 09:17:33;;;;;;;3.17;2.72;;;;;;;28.31;41.19;94663.88;5011377;28;20205;-74
2022/08/11 09:20:06;;;;;;;4.20;3.00;;;;;;;28.05;40.82;94668.53;5010877;28;20205;-72
2022/08/11 09:28:12;;;;;;;3.42;3.13;;;;;;;26.99;44.58;94674.75;5011193;28;20208;-73
2022/08/11 09:30:43;;;;;;;4.15;3.40;;;;;;;27.14;43.68;94678.00;5011307;28;20200;-74
2022/08/11 09:33:13;;;;;;;6.78;3.90;;;;;;;28.22;41.71;94672.88;5011158;28;20699;-73
2022/08/11 09:35:42;;;;;;;3.33;2.95;;;;;;;28.75;40.83;94653.03;5011256;28;20206;-73
2022/08/11 09:40:56;;;;;;;3.17;2.78;;;;;;;28.52;40.69;94654.13;4967301;28;20294;-74
2022/08/11 09:46:12;;;;;;;6.47;2.45;;;;;;;27.05;40.63;94669.47;5010093;28;20228;-73
2022/08/11 09:48:46;;;;;;;3.85;2.90;;;;;;;27.67;41.24;94656.44;5010664;28;20205;-73
2022/08/11 09:51:15;;;;;;;4.63;3.67;;;;;;;27.52;40.78;94654.00;5010187;28;20197;-73
2022/08/11 09:53:44;;;;;;;4.18;3.50;;;;;;;27.91;40.55;94652.22;5010816;28;20205;-74
2022/08/11 09:58:59;;;;;;;3.67;3.00;;;;;;;26.53;42.12;94650.72;5010459;28;20208;-74
2022/08/11 10:01:31;;;;;;;5.43;3.10;;;;;;;26.19;43.76;94649.00;5009809;28;20597;-73
2022/08/11 10:04:03;;;;;;;3.00;2.70;;;;;;;26.18;43.48;94652.22;5010143;28;20193;-74
2022/08/11 10:09:20;;;;;;;3.15;2.78;;;;;;;27.69;40.75;94628.94;5010349;28;20219;-74
2022/08/11 10:11:47;;;;;;;3.22;2.47;;;;;;;27.82;40.57;94638.16;5010232;28;20240;-74
2022/08/11 10:17:08;;;;;;;3.60;2.88;;;;;;;28.42;41.52;94636.50;4984777;28;20754;-73
2022/08/11 10:19:37;;;;;;;5.88;3.33;;;;;;;27.74;42.75;94642.34;5009334;28;20213;-73
2022/08/11 10:27:37;;;;;;;3.92;2.90;;;;;;;27.31;43.05;94637.84;4999575;28;20226;-74
2022/08/11 10:35:36;;;;;;;4.40;3.67;;;;;;;27.24;43.44;94638.00;4998383;28;20307;-72
2022/08/11 10:38:05;;;;;;;5.75;4.40;;;;;;;27.28;42.96;94644.25;5010166;28;20204;-74
2022/08/11 10:40:34;;;;;;;4.22;3.65;;;;;;;27.72;42.53;94630.88;5009891;28;20205;-73
2022/08/11 10:43:06;;;;;;;5.07;3.45;;;;;;;28.32;41.72;94628.44;5010186;28;20736;-77
2022/08/11 10:48:25;;;;;;;4.05;3.22;;;;;;;27.30;43.22;94616.78;5010093;28;20667;-74
2022/08/11 10:59:15;;;;;;;4.03;3.30;;;;;;;27.10;43.71;94610.53;5009972;28;20221;-73
2022/08/11 11:01:44;;;;;;;3.72;3.20;;;;;;;27.56;41.89;94614.97;5009629;28;20240;-73
2022/08/11 11:04:16;;;;;;;3.00;2.75;;;;;;;27.62;42.35;94612.41;5010160;28;20209;-74
2022/08/11 11:07:00;;;;;;;4.70;2.97;;;;;;;27.84;40.06;94614.22;5010030;28;20217;-74
2022/08/11 11:09:31;;;;;;;3.30;2.75;;;;;;;27.85;40.05;94603.84;5009846;28;20648;-74
2022/08/11 11:17:56;;;;;;;3.38;2.80;;;;;;;26.33;42.36;94608.28;4996721;28;20243;-73
2022/08/11 11:20:27;;;;;;;3.10;2.53;;;;;;;26.92;41.69;94610.16;5001846;28;20211;-73
2022/08/11 11:22:57;;;;;;;6.13;2.85;;;;;;;27.26;40.65;94596.63;5006283;28;20640;-74
2022/08/11 11:25:38;;;;;;;3.03;2.60;;;;;;;27.75;40.37;94599.34;5006700;28;20208;-73
2022/08/11 11:28:20;;;;;;;3.20;2.90;;;;;;;27.05;42.16;94597.16;5002882;28;20244;-74
2022/08/11 11:31:02;;;;;;;3.92;3.30;;;;;;;27.17;42.79;94610.38;5002742;28;20189;-74
2022/08/11 11:33:42;;;;;;;2.85;2.55;;;;;;;27.43;42.10;94605.75;4998772;28;20251;-74
2022/08/11 11:36:17;;;;;;;3.75;2.90;;;;;;;27.84;40.82;94602.28;5013038;28;20205;-74
2022/08/11 11:38:45;;;;;;;4.63;3.15;;;;;;;28.23;40.22;94596.44;4993296;28;20189;-74
2022/08/11 11:43:55;;;;;;;4.30;3.10;;;;;;;28.20;40.45;94591.72;5001305;28;20200;-74
2022/08/11 11:46:25;;;;;;;3.88;3.30;;;;;;;28.67;39.35;94588.34;5011643;28;20363;-73
2022/08/11 11:48:53;;;;;;;4.53;3.22;;;;;;;29.08;38.67;94589.50;5009416;28;20227;-72
2022/08/11 11:51:22;;;;;;;3.92;3.03;;;;;;;29.41;37.81;94582.41;5007673;28;20232;-72
2022/08/11 11:53:51;;;;;;;4.90;3.05;;;;;;;29.67;37.44;94575.50;5006749;28;20537;-72
2022/08/11 11:56:19;;;;;;;5.05;3.80;;;;;;;29.51;37.17;94581.28;5012534;28;20293;-72
2022/08/11 12:01:33;;;;;;;5.18;3.10;;;;;;;29.80;36.97;94574.69;5010721;28;20231;-73
2022/08/11 12:04:04;;;;;;;7.72;5.55;;;;;;;30.06;36.41;94567.81;5011632;28;20216;-73
2022/08/11 12:06:33;;;;;;;4.07;2.40;;;;;;;29.11;38.97;94575.41;5012289;28;20221;-74
2022/08/11 12:09:01;;;;;;;5.25;2.30;;;;;;;27.39;42.89;94589.13;5012145;28;20213;-79
2022/08/11 12:14:17;;;;;;;3.30;3.00;;;;;;;27.73;43.32;94571.19;5011336;28;20247;-73
2022/08/11 12:16:45;;;;;;;3.28;2.97;;;;;;;27.03;44.36;94572.56;5008366;28;20201;-75
2022/08/11 12:19:14;;;;;;;3.70;3.30;;;;;;;27.02;45.12;94573.00;5001828;28;20213;-73
2022/08/11 12:27:47;;;;;;;4.65;3.70;;;;;;;26.23;46.36;94581.50;4991474;28;20313;-73
2022/08/11 12:30:14;;;;;;;3.85;3.15;;;;;;;26.42;46.47;94577.94;5008567;28;20216;-73
2022/08/11 12:32:43;;;;;;;5.53;3.45;;;;;;;26.39;46.19;94573.22;5010573;28;20209;-73
2022/08/11 12:35:10;;;;;;;5.03;3.40;;;;;;;26.92;45.38;94571.22;5010774;28;20304;-73
2022/08/11 12:37:41;;;;;;;6.65;3.22;;;;;;;26.64;45.71;94578.25;5010745;28;20212;-74
2022/08/11 12:45:47;;;;;;;3.55;3.10;;;;;;;25.59;48.93;94596.63;5010991;28;20196;-74
2022/08/11 12:54:01;;;;;;;2.80;2.47;;;;;;;26.23;47.40;94581.50;5010927;28;20259;-74
2022/08/11 13:04:52;;;;;;;1.95;1.60;;;;;;;24.13;53.62;94606.38;4998577;28;20195;-74
2022/08/11 13:07:20;;;;;;;2.00;1.48;;;;;;;24.16;51.91;94617.41;5010517;28;20216;-74
2022/08/11 13:09:49;;;;;;;3.67;2.17;;;;;;;24.37;52.35;94600.53;5010507;28;20214;-75
2022/08/11 13:15:03;;;;;;;2.60;2.40;;;;;;;24.26;52.84;94601.88;5003345;28;20231;-74
2022/08/11 13:17:33;;;;;;;2.50;2.30;;;;;;;24.31;52.00;94595.91;4996867;28;20197;-74
2022/08/11 13:20:01;;;;;;;3.70;2.85;;;;;;;24.25;52.88;94597.53;5010058;28;20936;-73
2022/08/11 13:22:29;;;;;;;3.75;2.80;;;;;;;24.27;53.35;94600.69;5010481;28;20292;-74
2022/08/11 13:24:58;;;;;;;4.60;2.58;;;;;;;24.15;53.74;94598.44;5010225;28;20259;-77
2022/08/11 13:27:26;;;;;;;3.97;2.83;;;;;;;23.95;53.45;94601.84;5010153;28;20286;-74
2022/08/11 13:31:09;;;;;;;3.25;2.95;;;;;;;23.96;53.64;94597.88;5010469;28;20263;-74
2022/08/11 13:32:42;;;;;;;3.28;2.85;;;;;;;24.27;53.69;94595.16;5009980;28;20217;-73
2022/08/11 13:35:12;;;;;;;3.85;2.88;;;;;;;24.83;51.50;94598.28;5010084;28;20664;-74
2022/08/11 13:37:39;;;;;;;3.25;2.72;;;;;;;25.05;49.89;94596.78;5009832;28;20204;-73
2022/08/11 13:40:10;;;;;;;3.67;2.78;;;;;;;24.92;50.11;94585.47;5010016;28;20283;-73
2022/08/11 13:42:38;;;;;;;3.00;2.58;;;;;;;24.68;50.07;94592.97;5010162;28;20271;-74
2022/08/11 13:45:07;;;;;;;2.50;1.90;;;;;;;24.99;49.60;94581.84;4997363;28;20236;-73
2022/08/11 13:47:35;;;;;;;3.40;2.15;;;;;;;25.31;49.41;94573.75;5009554;28;20220;-74
2022/08/11 13:50:02;;;;;;;2.85;2.15;;;;;;;25.65;48.51;94576.31;5009453;28;20263;-73
2022/08/11 13:52:29;;;;;;;3.10;2.35;;;;;;;25.74;46.73;94567.41;5009567;28;20243;-73
2022/08/11 13:54:57;;;;;;;2.58;2.30;;;;;;;25.90;45.66;94569.50;5010018;28;20208;-74
2022/08/11 13:57:25;;;;;;;2.38;2.17;;;;;;;25.95;44.96;94572.56;5009600;28;20560;-73
2022/08/11 13:59:55;;;;;;;2.72;2.00;;;;;;;25.86;44.77;94564.00;5009949;28;20283;-73
2022/08/11 14:02:28;;;;;;;3.83;2.33;;;;;;;25.87;45.17;94560.00;5009663;28;20243;-74
2022/08/11 14:04:56;;;;;;;3.60;2.38;;;;;;;26.08;45.42;94559.59;5009982;28;20225;-73
2022/08/11 14:07:27;;;;;;;2.58;2.38;;;;;;;26.33;44.34;94555.53;5009244;28;20728;-73
2022/08/11 14:09:58;;;;;;;2.63;2.30;;;;;;;26.27;44.11;94562.75;5009478;28;20282;-73
2022/08/11 14:15:19;;;;;;;2.85;2.35;;;;;;;26.66;43.69;94554.34;4990864;28;20392;-72
2022/08/11 14:17:51;;;;;;;2.58;2.35;;;;;;;26.76;42.86;94553.31;5008489;28;20520;-72
2022/08/11 14:20:20;;;;;;;4.93;2.67;;;;;;;27.05;42.31;94542.31;5010174;28;20247;-73
2022/08/11 14:22:48;;;;;;;2.50;2.30;;;;;;;27.16;42.52;94547.59;5009295;28;20209;-73
2022/08/11 14:25:16;;;;;;;2.80;2.22;;;;;;;26.97;42.50;94554.03;5009088;28;20919;-73
2022/08/11 14:27:48;;;;;;;4.30;2.40;;;;;;;26.99;43.00;94551.59;5009613;28;20231;-73
2022/08/11 14:32:57;;;;;;;6.38;3.55;;;;;;;26.76;43.39;94553.31;5005721;28;20571;-72
2022/08/11 14:35:27;;;;;;;5.28;3.35;;;;;;;26.80;43.13;94548.44;5008167;28;20193;-72
2022/08/11 14:37:55;;;;;;;2.92;2.47;;;;;;;26.60;42.11;94550.53;5009056;28;20602;-72
2022/08/11 14:48:43;;;;;;;3.45;2.55;;;;;;;26.57;42.40;94543.06;4987918;28;20236;-74
2022/08/11 14:51:10;;;;;;;3.47;2.55;;;;;;;26.70;42.92;94538.38;4992600;28;20552;-74
2022/08/11 14:53:38;;;;;;;3.38;2.60;;;;;;;26.33;42.82;94541.63;5009338;28;20679;-75
2022/08/11 14:58:51;;;;;;;2.90;2.60;;;;;;;26.19;44.46;94534.38;5009978;28;20275;-76
2022/08/11 15:04:08;;;;;;;2.50;2.20;;;;;;;25.92;45.53;94533.75;4953534;28;20199;-80
2022/08/11 15:06:37;;;;;;;3.67;3.05;;;;;;;25.85;45.62;94529.13;5013195;28;20271;-76
2022/08/11 15:09:05;;;;;;;4.63;2.70;;;;;;;25.86;46.79;94533.47;5013031;28;20282;-76
2022/08/11 15:17:08;;;;;;;3.65;2.58;;;;;;;26.13;44.96;94534.06;5012472;28;20280;-75
2022/08/11 15:24:17;;;;;;;3.38;2.95;;;;;;;26.37;45.74;94525.66;5013350;28;20209;-77
2022/08/11 15:25:08;;;;;;;3.55;3.00;;;;;;;26.56;44.11;94533.16;5012740;28;20205;-75
2022/08/11 15:38:47;;;;;;;2.78;2.38;;;;;;;25.15;48.37;94526.47;5000144;28;20281;-76
2022/08/11 15:46:55;;;;;;;3.35;3.05;;;;;;;24.84;48.38;94516.72;5005540;28;20245;-74
2022/08/11 15:49:28;;;;;;;4.28;2.95;;;;;;;24.82;48.44;94521.91;5012302;28;20197;-73
2022/08/11 15:52:01;;;;;;;3.50;2.50;;;;;;;24.82;47.31;94535.75;5011564;28;20208;-73
2022/08/11 15:54:32;;;;;;;2.80;2.50;;;;;;;24.72;47.60;94520.88;5009781;28;20201;-75
2022/08/11 15:57:01;;;;;;;2.75;2.42;;;;;;;24.61;47.51;94532.13;5011644;28;20620;-80
2022/08/11 16:05:12;;;;;;;3.08;2.03;;;;;;;24.38;47.92;94534.84;5010792;28;20660;-75
2022/08/11 16:07:47;;;;;;;3.88;2.75;;;;;;;24.31;48.39;94546.06;5011279;28;20256;-75
2022/08/11 16:10:20;;;;;;;3.15;2.50;;;;;;;24.22;48.75;94542.97;5012193;28;20536;-74
2022/08/11 16:16:13;;;;;;;2.15;1.85;;;;;;;24.21;48.98;94538.63;5006940;28;20229;-76
2022/08/11 16:18:41;;;;;;;1.98;1.45;;;;;;;24.12;49.18;94539.16;5011097;28;20667;-76
2022/08/11 16:21:10;;;;;;;2.45;1.77;;;;;;;24.16;49.12;94539.91;5011543;28;20212;-75
2022/08/11 16:23:40;;;;;;;2.38;1.70;;;;;;;24.21;49.38;94536.66;5010921;28;20265;-75
2022/08/11 16:26:09;;;;;;;2.30;2.10;;;;;;;24.24;48.95;94541.38;5010444;28;20347;-75
2022/08/11 16:28:38;;;;;;;3.33;2.60;;;;;;;24.21;49.20;94535.88;5010491;28;20687;-77
2022/08/11 16:31:09;;;;;;;3.20;2.70;;;;;;;24.15;49.44;94543.88;5011060;28;20205;-74
2022/08/11 16:33:40;;;;;;;3.50;2.50;;;;;;;24.02;49.62;94543.66;5011124;28;20251;-75
2022/08/11 16:38:54;;;;;;;2.55;1.90;;;;;;;24.07;49.68;94542.38;5011032;28;20884;-73
2022/08/11 16:47:00;;;;;;;6.40;1.80;;;;;;;24.03;49.18;94550.75;5004192;28;20246;-73
2022/08/11 16:49:32;;;;;;;3.83;2.50;;;;;;;24.12;49.10;94554.97;5011374;28;20216;-75
2022/08/11 16:52:02;;;;;;;3.30;2.67;;;;;;;24.17;48.68;94568.38;5011819;28;20259;-73
2022/08/11 16:54:30;;;;;;;3.28;2.60;;;;;;;24.17;49.00;94554.53;5011077;28;20216;-80
2022/08/11 16:59:12;;;;;;;3.35;2.83;;;;;;;24.16;48.85;94556.50;5011365;28;20712;-78
2022/08/11 16:59:46;;;;;;;3.58;2.15;;;;;;;24.12;49.26;94566.84;4998739;28;20221;-79